createdAt,value
2022-08-03T00:02:24.145Z,2.20
2022-08-03T00:07:27.153Z,2.30
2022-08-03T00:12:30.028Z,2.00
2022-08-03T00:17:52.311Z,1.98
2022-08-03T00:22:55.881Z,1.80
2022-08-03T00:27:58.765Z,1.98
2022-08-03T00:33:02.122Z,2.05
2022-08-03T00:38:06.074Z,1.80
2022-08-03T00:43:09.231Z,2.88
2022-08-03T00:48:29.671Z,2.83
2022-08-03T00:53:36.837Z,8.05
2022-08-03T00:58:39.660Z,2.22
2022-08-03T01:03:42.592Z,2.58
2022-08-03T01:09:23.466Z,1.90
2022-08-03T01:14:35.141Z,2.47
2022-08-03T01:19:43.289Z,2.20
2022-08-03T01:25:06.638Z,2.30
2022-08-03T01:30:17.314Z,3.33
2022-08-03T01:35:28.677Z,2.50
2022-08-03T01:40:34.990Z,3.03
2022-08-03T01:45:38.953Z,3.40
2022-08-03T01:50:42.332Z,3.60
2022-08-03T01:55:50.544Z,3.22
2022-08-03T02:00:54.161Z,3.60
2022-08-03T02:06:18.151Z,3.20
2022-08-03T02:11:23.243Z,4.40
2022-08-03T02:16:32.529Z,3.50
2022-08-03T02:21:56.720Z,3.20
2022-08-03T02:32:04.938Z,1.90
2022-08-03T02:37:09.309Z,2.20
2022-08-03T02:42:13.308Z,2.20
2022-08-03T02:47:54.175Z,2.10
2022-08-03T02:52:55.846Z,1.67
2022-08-03T02:58:01.623Z,1.90
2022-08-03T03:03:10.214Z,2.55
2022-08-03T03:08:28.299Z,2.25
2022-08-03T03:13:32.590Z,1.98
2022-08-03T03:18:41.857Z,1.90
2022-08-03T03:23:44.860Z,2.30
2022-08-03T03:28:49.848Z,1.70
2022-08-03T03:33:54.048Z,2.22
2022-08-03T03:39:00.049Z,1.75
2022-08-03T03:44:18.416Z,1.50
2022-08-03T03:49:21.705Z,1.60
2022-08-03T03:54:25.493Z,1.80
2022-08-03T03:59:45.968Z,1.83
2022-08-03T04:05:07.869Z,1.52
2022-08-03T04:10:43.010Z,1.80
2022-08-03T04:15:46.197Z,1.67
2022-08-03T04:20:52.390Z,1.60
2022-08-03T04:25:56.483Z,1.48
2022-08-03T04:31:00.686Z,2.08
2022-08-03T04:36:07.141Z,1.90
2022-08-03T04:41:10.105Z,3.67
2022-08-03T04:46:16.942Z,1.42
2022-08-03T04:51:19.885Z,1.38
2022-08-03T04:56:22.782Z,1.67
2022-08-03T05:01:26.312Z,1.70
2022-08-03T05:06:29.806Z,1.13
2022-08-03T05:11:38.775Z,1.15
2022-08-03T05:16:41.628Z,1.00
2022-08-03T05:21:51.986Z,1.00
2022-08-03T05:26:55.718Z,1.10
2022-08-03T05:31:58.503Z,1.50
2022-08-03T05:37:01.329Z,1.30
2022-08-03T05:42:04.412Z,1.20
2022-08-03T05:47:07.196Z,1.27
2022-08-03T05:52:16.147Z,1.30
2022-08-03T05:57:21.124Z,3.22
2022-08-03T06:02:24.501Z,1.17
2022-08-03T06:07:27.589Z,1.15
2022-08-03T06:12:30.755Z,1.00
2022-08-03T06:17:37.557Z,1.00
2022-08-03T06:22:44.511Z,0.73
2022-08-03T06:27:54.185Z,1.10
2022-08-03T06:32:56.952Z,0.77
2022-08-03T06:37:59.936Z,0.80
2022-08-03T06:43:04.578Z,1.23
2022-08-03T06:48:09.454Z,0.90
2022-08-03T06:53:19.240Z,1.00
2022-08-03T06:58:24.245Z,1.20
2022-08-03T07:03:27.039Z,1.40
2022-08-03T07:08:34.272Z,1.40
2022-08-03T07:13:41.691Z,1.00
2022-08-03T07:18:44.526Z,0.77
2022-08-03T07:23:47.446Z,1.10
2022-08-03T07:28:50.315Z,1.42
2022-08-03T07:33:53.365Z,0.73
2022-08-03T07:38:58.417Z,0.82
2022-08-03T07:44:20.035Z,0.80
2022-08-03T07:49:22.861Z,0.82
2022-08-03T07:54:25.754Z,1.08
2022-08-03T08:00:01.977Z,0.80
2022-08-03T08:05:05.745Z,0.82
2022-08-03T08:10:10.437Z,0.80
2022-08-03T08:15:13.557Z,1.00
2022-08-03T08:20:30.633Z,1.67
2022-08-03T08:25:35.175Z,1.75
2022-08-03T08:30:38.050Z,4.97
2022-08-03T08:35:43.546Z,1.80
2022-08-03T08:40:50.574Z,1.30
2022-08-03T08:45:57.389Z,1.00
2022-08-03T08:51:00.946Z,1.13
2022-08-03T08:56:05.098Z,1.25
2022-08-03T09:01:08.090Z,1.10
2022-08-03T09:06:11.933Z,1.48
2022-08-03T09:11:17.439Z,1.00
2022-08-03T09:16:22.430Z,1.20
2022-08-03T09:21:32.035Z,2.08
2022-08-03T09:26:37.098Z,1.30
2022-08-03T09:31:45.674Z,1.10
2022-08-03T09:36:50.619Z,1.00
2022-08-03T09:42:10.302Z,0.90
2022-08-03T09:47:15.112Z,3.58
2022-08-03T09:52:38.285Z,0.95
2022-08-03T09:57:45.854Z,1.20
2022-08-03T10:02:54.978Z,1.10
2022-08-03T10:07:57.784Z,1.00
2022-08-03T10:13:00.758Z,1.13
2022-08-03T10:18:04.153Z,1.00
2022-08-03T10:23:12.633Z,1.10
2022-08-03T10:28:19.107Z,1.13
2022-08-03T10:33:50.259Z,1.40
2022-08-03T10:38:53.551Z,1.30
2022-08-03T10:44:04.998Z,1.20
2022-08-03T10:49:34.565Z,1.30
2022-08-03T10:55:03.250Z,1.40
2022-08-03T11:00:08.474Z,1.80
2022-08-03T11:05:30.222Z,1.58
2022-08-03T11:10:34.730Z,1.70
2022-08-03T11:15:37.857Z,1.80
2022-08-03T11:21:05.412Z,2.63
2022-08-03T11:26:22.953Z,1.90
2022-08-03T11:31:49.815Z,2.00
2022-08-03T11:37:21.010Z,2.00
2022-08-03T11:42:27.468Z,2.10
2022-08-03T11:47:30.604Z,1.92
2022-08-03T11:52:39.013Z,2.15
2022-08-03T11:59:13.094Z,2.15
2022-08-03T12:03:10.458Z,1.80
2022-08-03T12:08:15.054Z,1.60
2022-08-03T12:14:43.924Z,1.90
2022-08-03T12:18:41.515Z,2.10
2022-08-03T12:23:44.802Z,1.40
2022-08-03T12:28:50.875Z,1.10
2022-08-03T12:34:03.717Z,1.63
2022-08-03T12:39:12.219Z,1.70
2022-08-03T12:44:24.967Z,1.30
2022-08-03T12:49:28.563Z,1.40
2022-08-03T12:54:32.968Z,1.50
2022-08-03T12:59:45.167Z,1.45
2022-08-03T13:04:56.946Z,1.85
2022-08-03T13:10:06.177Z,1.70
2022-08-03T13:15:10.867Z,1.67
2022-08-03T13:20:13.633Z,1.50
2022-08-03T13:25:17.347Z,1.33
2022-08-03T13:30:30.377Z,1.40
2022-08-03T13:35:33.529Z,1.50
2022-08-03T13:40:41.840Z,2.25
2022-08-03T13:45:49.617Z,2.22
2022-08-03T13:50:55.224Z,2.05
2022-08-03T13:56:00.687Z,2.10
2022-08-03T14:01:03.404Z,2.60
2022-08-03T14:06:06.238Z,3.33
2022-08-03T14:11:09.058Z,2.72
2022-08-03T14:16:46.567Z,2.20
2022-08-03T14:22:37.746Z,1.98
2022-08-03T14:27:55.488Z,1.80
2022-08-03T14:33:04.123Z,1.67
2022-08-03T14:38:07.077Z,2.05
2022-08-03T14:43:23.118Z,3.20
2022-08-03T14:50:32.570Z,2.17
2022-08-03T14:53:50.841Z,2.00
2022-08-03T14:58:53.672Z,2.30
2022-08-03T15:03:56.639Z,2.17
2022-08-03T15:09:21.374Z,2.28
2022-08-03T15:14:22.202Z,2.30
2022-08-03T15:20:02.752Z,2.03
2022-08-03T15:24:54.283Z,2.30
2022-08-03T15:30:07.741Z,2.50
2022-08-03T15:35:13.122Z,2.10
2022-08-03T15:40:15.835Z,2.50
2022-08-03T15:45:20.534Z,2.67
2022-08-03T15:50:23.501Z,2.90
2022-08-03T15:55:26.589Z,2.83
2022-08-03T16:00:33.792Z,3.47
2022-08-03T16:05:37.001Z,4.00
2022-08-03T16:10:41.064Z,4.15
2022-08-03T16:15:43.842Z,3.58
2022-08-03T16:20:47.022Z,5.25
2022-08-03T16:25:49.844Z,3.35
2022-08-03T16:30:52.641Z,3.90
2022-08-03T16:35:55.437Z,2.90
2022-08-03T16:41:00.042Z,3.30
2022-08-03T16:46:02.841Z,3.10
2022-08-03T16:51:05.668Z,3.00
2022-08-03T16:56:10.709Z,3.10
2022-08-03T17:06:34.489Z,3.90
2022-08-03T17:11:46.400Z,3.42
2022-08-03T17:16:54.130Z,3.80
2022-08-03T17:22:01.673Z,3.35
2022-08-03T17:27:09.376Z,3.45
2022-08-03T17:32:42.792Z,5.53
2022-08-03T17:38:03.089Z,4.60
2022-08-03T17:44:08.129Z,4.30
2022-08-03T17:48:32.295Z,5.03
2022-08-03T17:59:08.243Z,4.57
2022-08-03T18:04:13.057Z,5.60
2022-08-03T18:15:01.141Z,5.10
2022-08-03T18:20:32.287Z,5.43
2022-08-03T18:25:45.740Z,5.40
2022-08-03T18:30:54.996Z,5.57
2022-08-03T18:35:58.236Z,6.00
2022-08-03T18:41:01.025Z,6.18
2022-08-03T18:46:05.251Z,6.30
2022-08-03T18:51:28.692Z,6.13
2022-08-03T18:57:03.223Z,6.13
2022-08-03T19:02:48.829Z,6.25
2022-08-03T19:08:00.424Z,6.47
2022-08-03T19:13:11.295Z,7.20
2022-08-03T19:18:17.112Z,7.35
2022-08-03T19:23:39.587Z,8.63
2022-08-03T19:28:43.656Z,8.57
2022-08-03T19:33:57.350Z,9.00
2022-08-03T19:44:07.717Z,9.82
2022-08-03T19:49:15.361Z,9.52
2022-08-03T19:59:49.664Z,9.18
2022-08-03T20:04:53.583Z,10.45
2022-08-03T20:09:57.027Z,10.48
2022-08-03T20:15:00.189Z,11.38
2022-08-03T20:25:12.223Z,11.52
2022-08-03T20:30:27.195Z,14.45
2022-08-03T20:35:30.215Z,14.52
2022-08-03T20:40:34.130Z,14.07
2022-08-03T20:46:00.172Z,18.00
2022-08-03T20:51:01.613Z,16.33
2022-08-03T20:56:04.667Z,17.30
2022-08-03T21:01:07.463Z,17.40
2022-08-03T21:06:17.529Z,17.27
2022-08-03T21:11:41.987Z,18.08
2022-08-03T21:12:57.104Z,5.28
2022-08-03T21:13:03.181Z,10.82
2022-08-03T21:16:51.161Z,18.75
2022-08-03T21:21:54.892Z,19.50
2022-08-03T21:26:57.739Z,18.95
2022-08-03T21:32:01.522Z,18.77
2022-08-03T21:37:04.431Z,19.42
2022-08-03T21:42:07.195Z,18.83
2022-08-03T21:47:11.713Z,19.63
2022-08-03T21:52:14.578Z,19.15
2022-08-03T21:57:25.612Z,17.33
2022-08-03T22:02:32.222Z,16.55
2022-08-03T22:07:35.537Z,16.02
2022-08-03T22:12:38.549Z,13.85
2022-08-03T22:17:54.898Z,13.02
2022-08-03T22:23:05.311Z,13.65
2022-08-03T22:28:10.092Z,13.25
2022-08-03T22:33:13.309Z,11.90
2022-08-03T22:38:18.185Z,12.50
2022-08-03T22:43:27.882Z,11.87
2022-08-03T22:48:35.256Z,12.25
2022-08-03T22:53:45.569Z,11.90
2022-08-03T22:58:48.355Z,12.88
2022-08-03T23:04:00.897Z,13.02
2022-08-03T23:09:10.457Z,12.82
2022-08-03T23:14:19.612Z,12.35
2022-08-03T23:19:26.137Z,12.57
2022-08-03T23:24:30.235Z,13.30
2022-08-03T23:29:37.007Z,15.32
2022-08-03T23:34:59.064Z,15.50
2022-08-03T23:40:02.340Z,14.88
2022-08-03T23:45:06.623Z,15.15
2022-08-03T23:50:09.381Z,15.02
2022-08-03T23:55:12.085Z,14.52
